sensor_id;sensor_type;location;lat;lon;timestamp;pressure;altitude;pressure_sealevel;temperature;humidity
19112;BME280;9688;51.906;8.376;2023-07-13T00:01:42;100529.13;;;19.38;74.88
19112;BME280;9688;51.906;8.376;2023-07-13T00:04:28;100530.22;;;19.35;74.93
19112;BME280;9688;51.906;8.376;2023-07-13T00:07:13;100528.72;;;19.31;75.04
19112;BME280;9688;51.906;8.376;2023-07-13T00:10:01;100539.59;;;19.30;74.96
19112;BME280;9688;51.906;8.376;2023-07-13T00:12:47;100540.56;;;19.29;75.36
19112;BME280;9688;51.906;8.376;2023-07-13T00:15:39;100553.22;;;19.27;75.14
19112;BME280;9688;51.906;8.376;2023-07-13T00:18:25;100546.13;;;19.26;75.14
19112;BME280;9688;51.906;8.376;2023-07-13T00:21:14;100547.88;;;19.27;75.14
19112;BME280;9688;51.906;8.376;2023-07-13T00:24:00;100548.72;;;19.27;75.24
19112;BME280;9688;51.906;8.376;2023-07-13T00:26:47;100540.91;;;19.24;75.43
19112;BME280;9688;51.906;8.376;2023-07-13T00:29:32;100556.13;;;19.24;75.44
19112;BME280;9688;51.906;8.376;2023-07-13T00:32:19;100547.44;;;19.20;75.62
19112;BME280;9688;51.906;8.376;2023-07-13T00:35:05;100545.75;;;19.19;75.47
19112;BME280;9688;51.906;8.376;2023-07-13T00:37:51;100545.00;;;19.17;75.80
19112;BME280;9688;51.906;8.376;2023-07-13T00:40:37;100547.59;;;19.19;75.40
19112;BME280;9688;51.906;8.376;2023-07-13T00:43:26;100549.41;;;19.18;75.88
19112;BME280;9688;51.906;8.376;2023-07-13T00:46:23;100543.19;;;19.17;75.66
19112;BME280;9688;51.906;8.376;2023-07-13T00:49:11;100539.78;;;19.15;75.98
19112;BME280;9688;51.906;8.376;2023-07-13T00:52:02;100546.00;;;19.16;75.92
19112;BME280;9688;51.906;8.376;2023-07-13T00:54:49;100543.31;;;19.16;76.01
19112;BME280;9688;51.906;8.376;2023-07-13T00:57:35;100542.97;;;19.21;76.10
19112;BME280;9688;51.906;8.376;2023-07-13T01:00:23;100543.44;;;19.26;75.58
19112;BME280;9688;51.906;8.376;2023-07-13T01:03:11;100551.91;;;19.32;75.53
19112;BME280;9688;51.906;8.376;2023-07-13T01:05:57;100555.81;;;19.39;75.55
19112;BME280;9688;51.906;8.376;2023-07-13T01:08:43;100541.31;;;19.42;75.33
19112;BME280;9688;51.906;8.376;2023-07-13T01:11:29;100542.91;;;19.45;75.15
19112;BME280;9688;51.906;8.376;2023-07-13T01:14:15;100546.34;;;19.47;75.37
19112;BME280;9688;51.906;8.376;2023-07-13T01:17:03;100543.53;;;19.48;75.46
19112;BME280;9688;51.906;8.376;2023-07-13T01:19:49;100553.16;;;19.51;75.10
19112;BME280;9688;51.906;8.376;2023-07-13T01:22:36;100548.44;;;19.54;75.05
19112;BME280;9688;51.906;8.376;2023-07-13T01:25:22;100549.03;;;19.58;74.74
19112;BME280;9688;51.906;8.376;2023-07-13T01:28:08;100552.22;;;19.63;74.76
19112;BME280;9688;51.906;8.376;2023-07-13T01:30:55;100549.09;;;19.69;74.79
19112;BME280;9688;51.906;8.376;2023-07-13T01:33:42;100554.22;;;19.72;74.59
19112;BME280;9688;51.906;8.376;2023-07-13T01:36:28;100545.31;;;19.72;75.07
19112;BME280;9688;51.906;8.376;2023-07-13T01:39:15;100545.41;;;19.70;75.63
19112;BME280;9688;51.906;8.376;2023-07-13T01:42:01;100553.59;;;19.69;75.82
19112;BME280;9688;51.906;8.376;2023-07-13T01:44:47;100538.69;;;19.65;75.97
19112;BME280;9688;51.906;8.376;2023-07-13T01:47:33;100552.22;;;19.63;76.43
19112;BME280;9688;51.906;8.376;2023-07-13T01:50:19;100551.38;;;19.63;76.71
19112;BME280;9688;51.906;8.376;2023-07-13T01:53:06;100550.38;;;19.64;76.75
19112;BME280;9688;51.906;8.376;2023-07-13T01:55:53;100552.22;;;19.63;76.91
19112;BME280;9688;51.906;8.376;2023-07-13T01:58:38;100554.16;;;19.61;76.90
19112;BME280;9688;51.906;8.376;2023-07-13T02:01:25;100543.78;;;19.56;77.11
19112;BME280;9688;51.906;8.376;2023-07-13T02:04:10;100550.47;;;19.51;77.30
19112;BME280;9688;51.906;8.376;2023-07-13T02:06:56;100544.97;;;19.41;77.63
19112;BME280;9688;51.906;8.376;2023-07-13T02:09:42;100549.09;;;19.34;77.61
19112;BME280;9688;51.906;8.376;2023-07-13T02:12:30;100552.47;;;19.25;78.22
19112;BME280;9688;51.906;8.376;2023-07-13T02:15:15;100546.59;;;19.20;78.31
19112;BME280;9688;51.906;8.376;2023-07-13T02:18:01;100551.69;;;19.11;78.34
19112;BME280;9688;51.906;8.376;2023-07-13T02:20:48;100545.94;;;19.05;78.67
19112;BME280;9688;51.906;8.376;2023-07-13T02:23:34;100557.13;;;18.99;79.14
19112;BME280;9688;51.906;8.376;2023-07-13T02:26:20;100555.63;;;18.94;79.24
19112;BME280;9688;51.906;8.376;2023-07-13T02:29:07;100562.53;;;18.86;79.57
19112;BME280;9688;51.906;8.376;2023-07-13T02:31:52;100557.50;;;18.81;79.52
19112;BME280;9688;51.906;8.376;2023-07-13T02:34:40;100553.59;;;18.74;79.63
19112;BME280;9688;51.906;8.376;2023-07-13T02:37:26;100555.81;;;18.67;80.09
19112;BME280;9688;51.906;8.376;2023-07-13T02:40:12;100557.03;;;18.63;79.85
19112;BME280;9688;51.906;8.376;2023-07-13T02:42:58;100553.72;;;18.60;80.28
19112;BME280;9688;51.906;8.376;2023-07-13T02:45:45;100552.97;;;18.58;80.58
19112;BME280;9688;51.906;8.376;2023-07-13T02:48:31;100552.22;;;18.56;80.71
19112;BME280;9688;51.906;8.376;2023-07-13T02:51:17;100553.53;;;18.50;80.88
19112;BME280;9688;51.906;8.376;2023-07-13T02:54:04;100557.63;;;18.43;80.96
19112;BME280;9688;51.906;8.376;2023-07-13T02:56:52;100561.47;;;18.39;81.58
19112;BME280;9688;51.906;8.376;2023-07-13T02:59:38;100564.25;;;18.37;82.04
19112;BME280;9688;51.906;8.376;2023-07-13T03:02:25;100568.03;;;18.35;82.44
19112;BME280;9688;51.906;8.376;2023-07-13T03:05:12;100567.38;;;18.31;82.73
19112;BME280;9688;51.906;8.376;2023-07-13T03:07:59;100573.16;;;18.25;83.00
19112;BME280;9688;51.906;8.376;2023-07-13T03:10:45;100571.88;;;18.18;83.42
19112;BME280;9688;51.906;8.376;2023-07-13T03:13:30;100575.84;;;18.12;83.56
19112;BME280;9688;51.906;8.376;2023-07-13T03:16:16;100575.34;;;18.07;84.25
19112;BME280;9688;51.906;8.376;2023-07-13T03:19:03;100573.00;;;18.02;84.44
19112;BME280;9688;51.906;8.376;2023-07-13T03:21:49;100573.44;;;17.96;84.78
19112;BME280;9688;51.906;8.376;2023-07-13T03:24:35;100567.31;;;17.94;84.53
19112;BME280;9688;51.906;8.376;2023-07-13T03:27:22;100568.38;;;17.92;84.01
19112;BME280;9688;51.906;8.376;2023-07-13T03:30:09;100568.59;;;17.89;84.53
19112;BME280;9688;51.906;8.376;2023-07-13T03:32:55;100578.66;;;17.85;84.10
19112;BME280;9688;51.906;8.376;2023-07-13T03:35:43;100570.88;;;17.82;84.01
19112;BME280;9688;51.906;8.376;2023-07-13T03:38:28;100583.47;;;17.80;83.72
19112;BME280;9688;51.906;8.376;2023-07-13T03:41:14;100590.91;;;17.75;83.59
19112;BME280;9688;51.906;8.376;2023-07-13T03:44:01;100587.50;;;17.73;83.36
19112;BME280;9688;51.906;8.376;2023-07-13T03:46:46;100591.34;;;17.69;83.74
19112;BME280;9688;51.906;8.376;2023-07-13T03:49:32;100604.94;;;17.66;83.04
19112;BME280;9688;51.906;8.376;2023-07-13T03:52:20;100597.13;;;17.63;83.39
19112;BME280;9688;51.906;8.376;2023-07-13T03:55:06;100598.91;;;17.62;83.09
19112;BME280;9688;51.906;8.376;2023-07-13T03:57:58;100595.41;;;17.61;82.41
19112;BME280;9688;51.906;8.376;2023-07-13T04:00:44;100600.75;;;17.61;81.94
19112;BME280;9688;51.906;8.376;2023-07-13T04:03:30;100604.38;;;17.60;81.60
19112;BME280;9688;51.906;8.376;2023-07-13T04:06:18;100610.50;;;17.63;81.37
19112;BME280;9688;51.906;8.376;2023-07-13T04:09:06;100605.16;;;17.63;80.72
19112;BME280;9688;51.906;8.376;2023-07-13T04:11:53;100613.03;;;17.64;80.88
19112;BME280;9688;51.906;8.376;2023-07-13T04:14:39;100603.19;;;17.65;80.25
19112;BME280;9688;51.906;8.376;2023-07-13T04:17:25;100606.53;;;17.68;80.40
19112;BME280;9688;51.906;8.376;2023-07-13T04:20:11;100617.03;;;17.71;79.78
19112;BME280;9688;51.906;8.376;2023-07-13T04:22:57;100620.44;;;17.73;79.54
19112;BME280;9688;51.906;8.376;2023-07-13T04:25:45;100619.50;;;17.74;79.38
19112;BME280;9688;51.906;8.376;2023-07-13T04:28:34;100620.25;;;17.76;79.16
19112;BME280;9688;51.906;8.376;2023-07-13T04:31:20;100619.09;;;17.80;78.73
19112;BME280;9688;51.906;8.376;2023-07-13T04:34:06;100630.34;;;17.86;78.44
19112;BME280;9688;51.906;8.376;2023-07-13T04:36:52;100630.13;;;17.89;78.41
19112;BME280;9688;51.906;8.376;2023-07-13T04:39:38;100633.34;;;17.94;78.24
19112;BME280;9688;51.906;8.376;2023-07-13T04:42:28;100631.72;;;18.04;78.07
19112;BME280;9688;51.906;8.376;2023-07-13T04:45:14;100637.59;;;18.09;77.65
19112;BME280;9688;51.906;8.376;2023-07-13T04:48:02;100636.75;;;18.09;77.08
19112;BME280;9688;51.906;8.376;2023-07-13T04:50:54;100627.22;;;18.17;77.18
19112;BME280;9688;51.906;8.376;2023-07-13T04:53:40;100627.53;;;18.25;76.87
19112;BME280;9688;51.906;8.376;2023-07-13T04:56:30;100625.09;;;18.35;76.53
19112;BME280;9688;51.906;8.376;2023-07-13T04:59:17;100629.09;;;18.54;75.73
19112;BME280;9688;51.906;8.376;2023-07-13T05:02:03;100619.25;;;19.04;74.01
19112;BME280;9688;51.906;8.376;2023-07-13T05:04:51;100638.56;;;19.20;73.26
19112;BME280;9688;51.906;8.376;2023-07-13T05:07:37;100633.59;;;19.15;73.73
19112;BME280;9688;51.906;8.376;2023-07-13T05:10:23;100631.81;;;19.27;72.61
19112;BME280;9688;51.906;8.376;2023-07-13T05:13:09;100623.47;;;19.19;73.14
19112;BME280;9688;51.906;8.376;2023-07-13T05:15:57;100629.75;;;19.07;73.77
19112;BME280;9688;51.906;8.376;2023-07-13T05:18:43;100628.56;;;19.11;73.50
19112;BME280;9688;51.906;8.376;2023-07-13T05:21:29;100647.88;;;19.27;72.95
19112;BME280;9688;51.906;8.376;2023-07-13T05:24:15;100643.72;;;19.23;72.69
19112;BME280;9688;51.906;8.376;2023-07-13T05:27:01;100645.44;;;19.24;72.90
19112;BME280;9688;51.906;8.376;2023-07-13T05:29:47;100646.28;;;19.25;73.04
19112;BME280;9688;51.906;8.376;2023-07-13T05:32:34;100643.66;;;19.12;73.09
19112;BME280;9688;51.906;8.376;2023-07-13T05:35:21;100648.38;;;19.08;73.30
19112;BME280;9688;51.906;8.376;2023-07-13T05:38:06;100657.28;;;19.09;73.28
19112;BME280;9688;51.906;8.376;2023-07-13T05:40:54;100657.34;;;19.20;72.78
19112;BME280;9688;51.906;8.376;2023-07-13T05:43:40;100660.78;;;19.22;73.20
19112;BME280;9688;51.906;8.376;2023-07-13T05:46:26;100658.94;;;19.23;72.94
19112;BME280;9688;51.906;8.376;2023-07-13T05:49:14;100666.66;;;19.27;73.13
19112;BME280;9688;51.906;8.376;2023-07-13T05:52:00;100668.25;;;19.30;73.09
19112;BME280;9688;51.906;8.376;2023-07-13T05:54:47;100664.59;;;19.31;73.00
19112;BME280;9688;51.906;8.376;2023-07-13T05:57:35;100669.09;;;19.30;72.75
19112;BME280;9688;51.906;8.376;2023-07-13T06:00:22;100669.38;;;19.38;73.07
19112;BME280;9688;51.906;8.376;2023-07-13T06:03:08;100677.81;;;19.45;73.00
19112;BME280;9688;51.906;8.376;2023-07-13T06:05:56;100674.28;;;19.45;73.14
19112;BME280;9688;51.906;8.376;2023-07-13T06:08:45;100677.72;;;19.47;73.11
19112;BME280;9688;51.906;8.376;2023-07-13T06:11:30;100677.88;;;19.56;72.84
19112;BME280;9688;51.906;8.376;2023-07-13T06:14:16;100676.41;;;19.76;72.68
19112;BME280;9688;51.906;8.376;2023-07-13T06:17:03;100684.59;;;19.86;72.28
19112;BME280;9688;51.906;8.376;2023-07-13T06:19:49;100673.06;;;19.97;72.14
19112;BME280;9688;51.906;8.376;2023-07-13T06:22:36;100674.56;;;20.12;71.70
19112;BME280;9688;51.906;8.376;2023-07-13T06:25:22;100677.63;;;20.41;70.88
19112;BME280;9688;51.906;8.376;2023-07-13T06:28:08;100680.81;;;20.35;71.08
19112;BME280;9688;51.906;8.376;2023-07-13T06:30:54;100679.31;;;20.20;71.76
19112;BME280;9688;51.906;8.376;2023-07-13T06:33:40;100683.22;;;20.16;72.00
19112;BME280;9688;51.906;8.376;2023-07-13T06:36:27;100683.69;;;20.10;72.40
19112;BME280;9688;51.906;8.376;2023-07-13T06:39:14;100680.38;;;20.06;72.82
19112;BME280;9688;51.906;8.376;2023-07-13T06:42:00;100680.78;;;20.13;72.81
19112;BME280;9688;51.906;8.376;2023-07-13T06:44:46;100673.94;;;20.20;72.71
19112;BME280;9688;51.906;8.376;2023-07-13T06:47:32;100677.25;;;20.23;72.92
19112;BME280;9688;51.906;8.376;2023-07-13T06:50:18;100671.16;;;20.21;72.97
19112;BME280;9688;51.906;8.376;2023-07-13T06:53:04;100673.34;;;20.27;72.94
19112;BME280;9688;51.906;8.376;2023-07-13T06:55:52;100680.47;;;20.40;73.07
19112;BME280;9688;51.906;8.376;2023-07-13T06:58:38;100683.41;;;20.48;72.87
19112;BME280;9688;51.906;8.376;2023-07-13T07:01:26;100684.84;;;20.52;72.70
19112;BME280;9688;51.906;8.376;2023-07-13T07:04:12;100694.63;;;20.53;72.57
19112;BME280;9688;51.906;8.376;2023-07-13T07:06:58;100698.19;;;20.54;72.82
19112;BME280;9688;51.906;8.376;2023-07-13T07:09:44;100692.69;;;20.55;72.66
19112;BME280;9688;51.906;8.376;2023-07-13T07:12:31;100698.56;;;20.60;73.00
19112;BME280;9688;51.906;8.376;2023-07-13T07:15:18;100702.22;;;20.70;72.56
19112;BME280;9688;51.906;8.376;2023-07-13T07:18:05;100697.31;;;20.76;72.40
19112;BME280;9688;51.906;8.376;2023-07-13T07:20:52;100696.72;;;20.83;72.42
19112;BME280;9688;51.906;8.376;2023-07-13T07:23:39;100700.72;;;21.00;72.01
19112;BME280;9688;51.906;8.376;2023-07-13T07:26:25;100698.63;;;21.15;71.52
19112;BME280;9688;51.906;8.376;2023-07-13T07:29:13;100698.25;;;21.20;71.38
19112;BME280;9688;51.906;8.376;2023-07-13T07:31:59;100699.50;;;21.15;71.53
19112;BME280;9688;51.906;8.376;2023-07-13T07:34:46;100690.94;;;21.10;71.52
19112;BME280;9688;51.906;8.376;2023-07-13T07:37:51;100692.28;;;21.16;71.12
19112;BME280;9688;51.906;8.376;2023-07-13T07:40:41;100701.03;;;21.29;70.93
19112;BME280;9688;51.906;8.376;2023-07-13T07:43:27;100701.38;;;21.36;70.76
19112;BME280;9688;51.906;8.376;2023-07-13T07:46:14;100699.69;;;21.46;70.57
19112;BME280;9688;51.906;8.376;2023-07-13T07:49:00;100707.59;;;21.59;70.11
19112;BME280;9688;51.906;8.376;2023-07-13T07:51:45;100711.47;;;21.66;70.07
19112;BME280;9688;51.906;8.376;2023-07-13T07:54:31;100709.97;;;21.73;69.72
19112;BME280;9688;51.906;8.376;2023-07-13T07:57:19;100701.38;;;21.79;69.50
19112;BME280;9688;51.906;8.376;2023-07-13T08:00:05;100700.81;;;21.97;69.15
19112;BME280;9688;51.906;8.376;2023-07-13T08:02:53;100695.50;;;22.07;68.56
19112;BME280;9688;51.906;8.376;2023-07-13T08:05:39;100705.00;;;22.11;68.48
19112;BME280;9688;51.906;8.376;2023-07-13T08:08:25;100699.59;;;22.22;68.20
19112;BME280;9688;51.906;8.376;2023-07-13T08:11:10;100693.34;;;22.42;67.82
19112;BME280;9688;51.906;8.376;2023-07-13T08:14:22;100697.47;;;22.46;67.31
19112;BME280;9688;51.906;8.376;2023-07-13T08:17:08;100702.22;;;22.64;66.95
19112;BME280;9688;51.906;8.376;2023-07-13T08:19:55;100694.75;;;22.67;66.89
19112;BME280;9688;51.906;8.376;2023-07-13T08:22:42;100708.59;;;22.63;66.89
19112;BME280;9688;51.906;8.376;2023-07-13T08:25:32;100699.41;;;22.65;66.45
19112;BME280;9688;51.906;8.376;2023-07-13T08:28:18;100701.44;;;22.73;66.29
19112;BME280;9688;51.906;8.376;2023-07-13T08:31:06;100707.31;;;22.57;65.94
19112;BME280;9688;51.906;8.376;2023-07-13T08:33:56;100711.50;;;22.50;66.48
19112;BME280;9688;51.906;8.376;2023-07-13T08:36:43;100704.91;;;22.64;65.66
19112;BME280;9688;51.906;8.376;2023-07-13T08:39:30;100700.72;;;22.81;65.57
19112;BME280;9688;51.906;8.376;2023-07-13T08:42:26;100698.84;;;23.02;64.89
19112;BME280;9688;51.906;8.376;2023-07-13T08:45:20;100704.69;;;23.07;64.54
19112;BME280;9688;51.906;8.376;2023-07-13T08:48:11;100707.94;;;23.11;64.01
19112;BME280;9688;51.906;8.376;2023-07-13T08:51:09;100710.22;;;23.06;63.81
19112;BME280;9688;51.906;8.376;2023-07-13T08:54:12;100706.53;;;23.16;63.88
19112;BME280;9688;51.906;8.376;2023-07-13T08:57:10;100702.59;;;23.21;63.02
19112;BME280;9688;51.906;8.376;2023-07-13T09:00:01;100705.19;;;23.61;62.26
19112;BME280;9688;51.906;8.376;2023-07-13T09:02:54;100705.78;;;23.94;61.24
19112;BME280;9688;51.906;8.376;2023-07-13T09:05:42;100711.78;;;23.88;61.10
19112;BME280;9688;51.906;8.376;2023-07-13T09:08:40;100706.22;;;23.99;60.58
19112;BME280;9688;51.906;8.376;2023-07-13T09:11:43;100710.13;;;24.43;59.26
19112;BME280;9688;51.906;8.376;2023-07-13T09:14:39;100697.69;;;24.70;58.13
19112;BME280;9688;51.906;8.376;2023-07-13T09:17:35;100704.88;;;24.79;57.60
19112;BME280;9688;51.906;8.376;2023-07-13T09:20:26;100703.31;;;24.86;57.22
19112;BME280;9688;51.906;8.376;2023-07-13T09:23:16;100704.25;;;24.67;57.29
19112;BME280;9688;51.906;8.376;2023-07-13T09:26:06;100713.25;;;24.58;56.90
19112;BME280;9688;51.906;8.376;2023-07-13T09:28:57;100692.66;;;24.47;57.03
19112;BME280;9688;51.906;8.376;2023-07-13T09:31:50;100692.19;;;24.42;56.76
19112;BME280;9688;51.906;8.376;2023-07-13T09:34:39;100705.44;;;24.36;56.80
19112;BME280;9688;51.906;8.376;2023-07-13T09:37:29;100699.09;;;24.17;57.34
19112;BME280;9688;51.906;8.376;2023-07-13T09:40:24;100698.66;;;24.02;58.00
19112;BME280;9688;51.906;8.376;2023-07-13T09:43:13;100700.06;;;24.16;57.51
19112;BME280;9688;51.906;8.376;2023-07-13T09:46:01;100700.19;;;24.24;57.20
19112;BME280;9688;51.906;8.376;2023-07-13T09:48:48;100701.47;;;24.30;57.03
19112;BME280;9688;51.906;8.376;2023-07-13T09:51:34;100705.84;;;24.41;56.74
19112;BME280;9688;51.906;8.376;2023-07-13T09:54:24;100692.66;;;24.47;56.05
19112;BME280;9688;51.906;8.376;2023-07-13T09:57:13;100702.25;;;24.60;55.63
19112;BME280;9688;51.906;8.376;2023-07-13T10:00:02;100708.81;;;24.57;55.59
19112;BME280;9688;51.906;8.376;2023-07-13T10:03:03;100709.66;;;24.67;55.34
19112;BME280;9688;51.906;8.376;2023-07-13T10:05:51;100707.28;;;24.82;55.12
19112;BME280;9688;51.906;8.376;2023-07-13T10:08:39;100707.06;;;25.03;54.45
19112;BME280;9688;51.906;8.376;2023-07-13T10:11:27;100709.19;;;25.00;54.04
19112;BME280;9688;51.906;8.376;2023-07-13T10:14:16;100698.09;;;25.03;53.63
19112;BME280;9688;51.906;8.376;2023-07-13T10:17:04;100708.84;;;25.12;53.58
19112;BME280;9688;51.906;8.376;2023-07-13T10:19:51;100711.00;;;25.09;53.36
19112;BME280;9688;51.906;8.376;2023-07-13T10:22:43;100715.19;;;25.03;53.75
19112;BME280;9688;51.906;8.376;2023-07-13T10:25:33;100713.84;;;25.17;53.33
19112;BME280;9688;51.906;8.376;2023-07-13T10:28:26;100714.25;;;25.40;52.59
19112;BME280;9688;51.906;8.376;2023-07-13T10:31:15;100718.69;;;25.59;51.92
19112;BME280;9688;51.906;8.376;2023-07-13T10:34:02;100728.13;;;25.55;51.83
19112;BME280;9688;51.906;8.376;2023-07-13T10:36:51;100717.75;;;25.50;51.90
19112;BME280;9688;51.906;8.376;2023-07-13T10:39:38;100713.72;;;25.54;51.75
19112;BME280;9688;51.906;8.376;2023-07-13T10:42:29;100709.66;;;25.50;51.50
19112;BME280;9688;51.906;8.376;2023-07-13T10:45:19;100714.34;;;25.66;50.91
19112;BME280;9688;51.906;8.376;2023-07-13T10:48:06;100710.66;;;25.85;50.13
19112;BME280;9688;51.906;8.376;2023-07-13T10:50:55;100715.84;;;25.78;50.28
19112;BME280;9688;51.906;8.376;2023-07-13T10:53:46;100720.72;;;25.75;49.99
19112;BME280;9688;51.906;8.376;2023-07-13T10:56:33;100711.88;;;25.73;50.00
19112;BME280;9688;51.906;8.376;2023-07-13T10:59:26;100714.13;;;25.77;49.72
19112;BME280;9688;51.906;8.376;2023-07-13T11:02:22;100716.47;;;25.72;49.73
19112;BME280;9688;51.906;8.376;2023-07-13T11:05:26;100728.19;;;25.63;49.86
19112;BME280;9688;51.906;8.376;2023-07-13T11:08:19;100731.13;;;25.52;50.11
19112;BME280;9688;51.906;8.376;2023-07-13T11:14:31;100718.78;;;25.22;50.99
19112;BME280;9688;51.906;8.376;2023-07-13T11:17:37;100720.94;;;25.18;51.55
19112;BME280;9688;51.906;8.376;2023-07-13T11:20:42;100713.38;;;25.22;51.69
19112;BME280;9688;51.906;8.376;2023-07-13T11:23:31;100713.03;;;25.34;51.14
19112;BME280;9688;51.906;8.376;2023-07-13T11:26:39;100716.97;;;25.40;50.83
19112;BME280;9688;51.906;8.376;2023-07-13T11:29:36;100713.72;;;25.36;51.13
19112;BME280;9688;51.906;8.376;2023-07-13T11:32:25;100719.75;;;25.30;51.39
19112;BME280;9688;51.906;8.376;2023-07-13T11:35:22;100720.19;;;25.26;51.24
19112;BME280;9688;51.906;8.376;2023-07-13T11:38:17;100723.44;;;25.29;51.43
19112;BME280;9688;51.906;8.376;2023-07-13T11:41:16;100716.66;;;25.25;51.41
19112;BME280;9688;51.906;8.376;2023-07-13T11:44:10;100717.72;;;25.32;51.25
19112;BME280;9688;51.906;8.376;2023-07-13T11:47:00;100714.81;;;25.44;51.16
19112;BME280;9688;51.906;8.376;2023-07-13T11:49:49;100718.75;;;25.31;50.95
19112;BME280;9688;51.906;8.376;2023-07-13T11:52:37;100711.78;;;25.29;50.74
19112;BME280;9688;51.906;8.376;2023-07-13T11:55:25;100721.22;;;25.25;50.36
19112;BME280;9688;51.906;8.376;2023-07-13T11:58:23;100712.94;;;25.26;50.55
19112;BME280;9688;51.906;8.376;2023-07-13T12:01:17;100711.56;;;25.40;50.44
19112;BME280;9688;51.906;8.376;2023-07-13T12:04:10;100719.53;;;25.59;49.74
19112;BME280;9688;51.906;8.376;2023-07-13T12:07:18;100723.03;;;25.70;48.81
19112;BME280;9688;51.906;8.376;2023-07-13T12:10:17;100723.50;;;25.47;49.00
19112;BME280;9688;51.906;8.376;2023-07-13T12:13:08;100729.41;;;25.33;49.20
19112;BME280;9688;51.906;8.376;2023-07-13T12:15:57;100723.09;;;25.42;48.94
19112;BME280;9688;51.906;8.376;2023-07-13T12:18:44;100718.25;;;25.64;48.50
19112;BME280;9688;51.906;8.376;2023-07-13T12:21:43;100706.97;;;25.86;47.73
19112;BME280;9688;51.906;8.376;2023-07-13T12:24:29;100719.38;;;25.79;47.94
19112;BME280;9688;51.906;8.376;2023-07-13T12:27:20;100719.38;;;25.79;47.96
19112;BME280;9688;51.906;8.376;2023-07-13T12:30:24;100716.22;;;25.66;48.21
19112;BME280;9688;51.906;8.376;2023-07-13T12:33:13;100724.03;;;25.69;48.43
19112;BME280;9688;51.906;8.376;2023-07-13T12:36:01;100724.50;;;25.82;48.31
19112;BME280;9688;51.906;8.376;2023-07-13T12:38:50;100720.00;;;25.73;47.95
19112;BME280;9688;51.906;8.376;2023-07-13T12:41:37;100713.53;;;25.84;47.97
19112;BME280;9688;51.906;8.376;2023-07-13T12:44:30;100713.91;;;26.07;47.64
19112;BME280;9688;51.906;8.376;2023-07-13T12:47:16;100709.94;;;26.01;47.26
19112;BME280;9688;51.906;8.376;2023-07-13T12:50:04;100718.28;;;26.08;46.57
19112;BME280;9688;51.906;8.376;2023-07-13T12:52:52;100711.63;;;26.20;45.79
19112;BME280;9688;51.906;8.376;2023-07-13T12:55:46;100700.94;;;26.18;45.27
19112;BME280;9688;51.906;8.376;2023-07-13T12:58:37;100706.97;;;26.30;44.94
19112;BME280;9688;51.906;8.376;2023-07-13T13:01:27;100712.47;;;26.20;45.02
19112;BME280;9688;51.906;8.376;2023-07-13T13:04:16;100709.44;;;26.23;44.66
19112;BME280;9688;51.906;8.376;2023-07-13T13:07:08;100712.84;;;26.25;44.00
19112;BME280;9688;51.906;8.376;2023-07-13T13:09:55;100720.66;;;26.29;44.20
19112;BME280;9688;51.906;8.376;2023-07-13T13:12:45;100708.00;;;26.37;44.31
19112;BME280;9688;51.906;8.376;2023-07-13T13:15:30;100714.66;;;26.43;44.06
19112;BME280;9688;51.906;8.376;2023-07-13T13:18:18;100711.25;;;26.41;43.94
19112;BME280;9688;51.906;8.376;2023-07-13T13:21:04;100700.72;;;26.56;43.33
19112;BME280;9688;51.906;8.376;2023-07-13T13:23:51;100699.41;;;26.68;43.57
19112;BME280;9688;51.906;8.376;2023-07-13T13:26:37;100699.13;;;26.79;43.31
19112;BME280;9688;51.906;8.376;2023-07-13T13:29:27;100715.06;;;26.82;43.29
19112;BME280;9688;51.906;8.376;2023-07-13T13:32:16;100714.78;;;26.93;42.62
19112;BME280;9688;51.906;8.376;2023-07-13T13:35:03;100722.59;;;26.88;42.75
19112;BME280;9688;51.906;8.376;2023-07-13T13:37:52;100726.63;;;26.84;43.02
19112;BME280;9688;51.906;8.376;2023-07-13T13:40:38;100727.31;;;26.60;43.77
19112;BME280;9688;51.906;8.376;2023-07-13T13:43:26;100738.69;;;26.38;44.56
19112;BME280;9688;51.906;8.376;2023-07-13T13:46:17;100738.41;;;26.23;44.95
19112;BME280;9688;51.906;8.376;2023-07-13T13:49:03;100742.47;;;26.19;45.16
19112;BME280;9688;51.906;8.376;2023-07-13T13:51:51;100762.34;;;26.10;46.11
19112;BME280;9688;51.906;8.376;2023-07-13T13:54:38;100759.03;;;25.98;46.86
19112;BME280;9688;51.906;8.376;2023-07-13T13:57:24;100763.38;;;25.91;47.97
19112;BME280;9688;51.906;8.376;2023-07-13T14:00:12;100760.53;;;25.82;48.28
19112;BME280;9688;51.906;8.376;2023-07-13T14:03:00;100761.84;;;25.60;49.69
19112;BME280;9688;51.906;8.376;2023-07-13T14:05:47;100779.06;;;25.14;51.43
19112;BME280;9688;51.906;8.376;2023-07-13T14:08:33;100787.88;;;24.79;52.88
19112;BME280;9688;51.906;8.376;2023-07-13T14:11:21;100811.88;;;24.44;55.13
19112;BME280;9688;51.906;8.376;2023-07-13T14:14:12;100797.75;;;24.02;59.08
19112;BME280;9688;51.906;8.376;2023-07-13T14:17:00;100811.16;;;23.53;63.01
19112;BME280;9688;51.906;8.376;2023-07-13T14:19:47;100792.16;;;23.14;66.23
19112;BME280;9688;51.906;8.376;2023-07-13T14:22:35;100798.78;;;22.80;67.85
19112;BME280;9688;51.906;8.376;2023-07-13T14:25:23;100800.88;;;22.55;69.52
19112;BME280;9688;51.906;8.376;2023-07-13T14:28:19;100795.91;;;22.51;70.82
19112;BME280;9688;51.906;8.376;2023-07-13T14:31:05;100804.13;;;22.49;70.99
19112;BME280;9688;51.906;8.376;2023-07-13T14:33:51;100803.53;;;22.45;71.21
19112;BME280;9688;51.906;8.376;2023-07-13T14:36:40;100814.69;;;22.41;72.33
19112;BME280;9688;51.906;8.376;2023-07-13T14:39:29;100824.31;;;22.34;71.83
19112;BME280;9688;51.906;8.376;2023-07-13T14:42:15;100840.25;;;22.25;72.43
19112;BME280;9688;51.906;8.376;2023-07-13T14:45:02;100840.00;;;22.17;72.56
19112;BME280;9688;51.906;8.376;2023-07-13T14:47:48;100838.78;;;22.10;72.47
19112;BME280;9688;51.906;8.376;2023-07-13T14:50:35;100856.69;;;22.00;71.96
19112;BME280;9688;51.906;8.376;2023-07-13T14:53:25;100860.06;;;21.81;72.41
19112;BME280;9688;51.906;8.376;2023-07-13T14:56:14;100876.72;;;21.64;71.72